Cerro, New Mexico
Current Conditions -  °F | °C
As of 1:15 PM on Friday 31 Oct 2014 (Local Time) from KSKX Reporting Station
Clear Clear  
Wind Chill: 55°   Ceiling: Unl
Heat Index: 55°   Visibility: 10mi
Dew Point: 23°   Wind: 5mph
Humidity: 28%   Direction: 260°W
Pressure: 30.38"   Gusts: NA
Location:  36.75°N, 105.61°W
Report Text: KSKX 311915Z AUTO 26004KT 10SM CLR 13/M05 A3038 RMK AO1
Loading
Personal Weather Stations






























Interactive Weather Map
Tropical Storm Tracking
New forecast layout! Learn more

10-Day Weather Forecast

Advertisements
Track Severe Weather on mobile